Time;durP1;ratioP1;P1;durP2;ratioP2;P2;SDS_P1;SDS_P2;PMS_P1;PMS_P2;Temp;Humidity;BMP_temperature;BMP_pressure;BME280_temperature;BME280_humidity;BME280_pressure;Samples;Min_cycle;Max_cycle;Signal;HPM_P1;HPM_P2
2022/04/05 00:00:52;;;;;;;16.25;2.30;;;;;;;3.46;91.68;99587.03;5071056;28;20202;-43
2022/04/05 00:03:18;;;;;;;11.25;2.28;;;;;;;3.53;91.45;99597.44;5070718;28;20186;-46
2022/04/05 00:05:43;;;;;;;16.67;2.75;;;;;;;3.41;90.82;99590.72;5069407;28;20615;-44
2022/04/05 00:08:09;;;;;;;14.65;2.20;;;;;;;3.43;90.26;99597.72;5069031;28;20201;-45
2022/04/05 00:10:36;;;;;;;17.48;2.60;;;;;;;3.37;90.66;99597.88;5070573;28;20167;-45
2022/04/05 00:13:05;;;;;;;15.20;2.22;;;;;;;3.37;90.39;99597.88;5070946;28;20182;-44
2022/04/05 00:15:34;;;;;;;13.95;2.55;;;;;;;3.39;89.92;99597.81;5069581;28;20634;-44
2022/04/05 00:18:01;;;;;;;7.97;2.15;;;;;;;3.39;90.20;99598.72;5070615;28;20179;-39
2022/04/05 00:20:29;;;;;;;12.73;2.30;;;;;;;3.45;89.91;99590.56;5070537;28;20281;-43
2022/04/05 00:22:55;;;;;;;16.15;3.00;;;;;;;3.44;90.05;99596.78;5070790;28;20187;-44
2022/04/05 00:25:21;;;;;;;13.00;2.22;;;;;;;3.45;90.33;99587.06;5070726;28;20159;-43
2022/04/05 00:27:47;;;;;;;12.90;2.03;;;;;;;3.52;90.10;99593.94;5070323;28;20527;-42
2022/04/05 00:30:14;;;;;;;14.15;2.40;;;;;;;3.59;89.24;99599.91;5070217;28;20167;-43
2022/04/05 00:32:40;;;;;;;16.30;3.08;;;;;;;3.41;89.86;99596.00;5070685;28;20173;-44
2022/04/05 00:35:06;;;;;;;15.30;3.17;;;;;;;3.34;90.26;99602.41;5070208;28;20182;-43
2022/04/05 00:37:32;;;;;;;12.75;2.65;;;;;;;3.35;90.66;99597.06;5070414;28;20616;-43
2022/04/05 00:39:57;;;;;;;15.13;2.50;;;;;;;3.40;90.28;99607.53;5070246;28;20183;-41
2022/04/05 00:42:22;;;;;;;15.02;2.85;;;;;;;3.33;90.43;99601.53;5086381;28;20197;-41
2022/04/05 00:44:48;;;;;;;16.70;2.05;;;;;;;3.29;90.44;99607.81;5070415;28;20648;-42
2022/04/05 00:47:14;;;;;;;15.93;2.95;;;;;;;3.33;90.57;99605.97;5069764;28;20206;-42
2022/04/05 00:49:41;;;;;;;12.50;2.50;;;;;;;3.36;90.91;99600.56;5070385;28;20220;-42
2022/04/05 00:52:06;;;;;;;10.40;2.08;;;;;;;3.42;90.68;99609.22;5070245;28;20174;-42
2022/04/05 00:54:34;;;;;;;8.82;2.00;;;;;;;3.41;90.46;99619.84;5070279;28;20626;-42
2022/04/05 00:57:00;;;;;;;7.60;2.03;;;;;;;3.29;90.39;99624.56;5070189;28;20186;-44
2022/04/05 00:59:30;;;;;;;9.88;2.25;;;;;;;3.34;90.32;99618.28;5070216;28;20169;-43
2022/04/05 01:01:56;;;;;;;9.05;1.88;;;;;;;3.28;89.97;99617.56;5070318;28;20193;-42
2022/04/05 01:04:22;;;;;;;11.48;1.85;;;;;;;3.23;89.50;99622.09;5069679;28;20183;-43
2022/04/05 01:06:49;;;;;;;9.57;1.90;;;;;;;3.23;89.21;99624.72;5069855;28;20194;-43
2022/04/05 01:09:14;;;;;;;9.52;2.17;;;;;;;3.15;89.46;99621.44;5070052;28;20671;-44
2022/04/05 01:11:40;;;;;;;11.60;1.80;;;;;;;3.08;89.56;99623.41;5068651;28;20163;-42
2022/04/05 01:14:06;;;;;;;10.00;1.77;;;;;;;3.06;89.82;99622.56;5070159;28;20186;-42
2022/04/05 01:16:33;;;;;;;10.68;2.08;;;;;;;3.09;89.96;99633.06;5069651;28;20186;-41
2022/04/05 01:18:59;;;;;;;13.13;2.00;;;;;;;3.05;90.10;99631.41;5069416;28;20179;-43
2022/04/05 01:21:24;;;;;;;11.15;2.05;;;;;;;3.00;90.43;99628.00;5069882;28;20661;-43
2022/04/05 01:24:04;;;;;;;14.65;1.95;;;;;;;3.00;90.37;99627.16;5068065;28;20181;-41
2022/04/05 01:26:36;;;;;;;8.07;1.63;;;;;;;2.92;90.66;99632.63;5069919;28;20672;-44
2022/04/05 01:29:01;;;;;;;12.30;2.00;;;;;;;3.02;90.48;99635.94;5069788;28;20194;-43
2022/04/05 01:31:27;;;;;;;10.13;2.15;;;;;;;2.98;90.54;99640.41;5069564;28;20186;-42
2022/04/05 01:33:52;;;;;;;10.75;1.88;;;;;;;2.98;90.49;99648.34;5069923;28;20165;-41
2022/04/05 01:36:24;;;;;;;9.43;1.70;;;;;;;2.92;90.51;99645.88;5068989;28;20202;-44
2022/04/05 01:38:49;;;;;;;12.35;2.15;;;;;;;2.88;90.72;99647.72;5069596;28;20171;-42
2022/04/05 01:41:15;;;;;;;13.40;2.40;;;;;;;2.89;90.94;99646.81;5069748;28;20205;-42
2022/04/05 01:43:40;;;;;;;13.38;1.70;;;;;;;2.82;91.10;99654.94;5065516;28;20653;-43
2022/04/05 01:46:06;;;;;;;15.65;2.08;;;;;;;2.89;91.16;99653.88;5064338;28;20245;-41
2022/04/05 01:48:31;;;;;;;9.25;2.50;;;;;;;2.80;91.01;99649.72;5064335;28;20224;-42
2022/04/05 01:50:57;;;;;;;4.78;1.60;;;;;;;2.82;90.99;99647.88;5073492;28;20171;-42
2022/04/05 01:53:22;;;;;;;10.93;2.95;;;;;;;2.77;91.02;99660.34;5073231;28;20235;-43
2022/04/05 01:55:48;;;;;;;11.90;2.33;;;;;;;2.79;90.74;99657.66;5073352;28;20187;-43
2022/04/05 01:58:13;;;;;;;10.52;2.17;;;;;;;2.85;90.46;99661.03;5073373;28;20208;-43
2022/04/05 02:00:38;;;;;;;15.60;2.20;;;;;;;2.81;90.66;99669.94;5072677;28;20206;-43
2022/04/05 02:03:04;;;;;;;8.77;1.95;;;;;;;2.77;90.74;99672.72;5073462;28;20167;-43
2022/04/05 02:05:29;;;;;;;12.80;1.98;;;;;;;2.79;90.83;99665.59;5087868;28;20171;-41
2022/04/05 02:07:55;;;;;;;7.65;2.25;;;;;;;2.71;91.26;99659.63;5072939;28;20538;-44
2022/04/05 02:10:21;;;;;;;7.82;1.85;;;;;;;2.75;91.27;99662.16;5073070;28;20220;-43
2022/04/05 02:12:46;;;;;;;11.57;2.40;;;;;;;2.67;91.58;99680.00;5071961;28;20650;-42
2022/04/05 02:15:24;;;;;;;12.57;1.65;;;;;;;2.74;91.58;99676.31;5072002;28;20254;-43
2022/04/05 02:17:59;;;;;;;11.43;2.03;;;;;;;2.65;91.30;99664.19;5088200;28;20170;-42
2022/04/05 02:20:27;;;;;;;8.88;2.05;;;;;;;2.66;91.19;99672.97;5087175;28;20202;-42
2022/04/05 02:22:53;;;;;;;8.98;2.00;;;;;;;2.66;90.96;99670.31;5071680;28;20181;-44
2022/04/05 02:25:39;;;;;;;12.35;1.92;;;;;;;2.70;90.66;99672.00;5071072;28;20183;-43
2022/04/05 02:28:04;;;;;;;10.10;1.77;;;;;;;2.73;90.43;99676.31;5071211;28;20204;-42
2022/04/05 02:30:39;;;;;;;13.98;3.17;;;;;;;2.69;90.46;99686.13;5070719;28;20179;-44
2022/04/05 02:33:07;;;;;;;7.10;1.83;;;;;;;2.72;90.71;99680.75;5071576;28;20206;-43
2022/04/05 02:35:33;;;;;;;12.38;2.20;;;;;;;2.82;90.25;99678.75;5072629;28;20252;-41
2022/04/05 02:38:00;;;;;;;8.98;1.63;;;;;;;2.74;90.11;99694.81;5071103;28;20194;-44
2022/04/05 02:40:27;;;;;;;10.48;1.70;;;;;;;2.64;90.45;99683.56;5054732;28;20195;-44
2022/04/05 02:42:55;;;;;;;13.75;1.58;;;;;;;2.66;90.34;99686.19;5071232;28;20174;-43
2022/04/05 02:45:22;;;;;;;10.40;1.88;;;;;;;2.65;90.68;99695.91;5071220;28;20278;-43
2022/04/05 02:47:49;;;;;;;16.90;2.10;;;;;;;2.71;90.33;99692.22;5070920;28;20190;-42
2022/04/05 02:50:18;;;;;;;11.60;1.60;;;;;;;2.72;90.77;99696.63;5072324;28;20262;-44
2022/04/05 02:52:45;;;;;;;9.40;1.50;;;;;;;2.71;91.20;99705.44;5072323;28;20163;-44
2022/04/05 02:55:13;;;;;;;11.13;1.70;;;;;;;2.75;91.79;99712.41;5071041;28;20170;-42
2022/04/05 02:57:40;;;;;;;8.68;2.15;;;;;;;2.72;92.90;99712.50;5071201;28;20183;-43
2022/04/05 03:00:12;;;;;;;14.43;1.60;;;;;;;2.62;93.31;99708.31;5070690;28;20289;-43
2022/04/05 03:02:39;;;;;;;12.73;2.20;;;;;;;2.59;93.88;99709.28;5070697;28;20257;-41
2022/04/05 03:05:06;;;;;;;10.70;2.28;;;;;;;2.55;93.68;99720.81;5072281;28;20171;-44
2022/04/05 03:07:34;;;;;;;9.07;1.80;;;;;;;2.53;93.72;99717.34;5070449;28;20676;-43
2022/04/05 03:10:06;;;;;;;8.65;1.70;;;;;;;2.62;93.72;99726.84;5072098;28;20170;-44
2022/04/05 03:12:34;;;;;;;7.63;2.05;;;;;;;2.48;93.55;99725.38;5070652;28;20583;-41
2022/04/05 03:15:06;;;;;;;9.05;1.65;;;;;;;2.53;93.37;99717.34;5087153;28;20206;-43
2022/04/05 03:17:32;;;;;;;9.88;1.77;;;;;;;2.45;93.64;99732.53;5087277;28;20206;-43
2022/04/05 03:20:00;;;;;;;10.18;1.80;;;;;;;2.46;93.57;99732.47;5070161;28;20186;-45
2022/04/05 03:22:26;;;;;;;12.02;2.50;;;;;;;2.46;93.62;99736.91;5070721;28;20170;-42
2022/04/05 03:24:52;;;;;;;13.43;2.00;;;;;;;2.42;93.71;99736.09;5071690;28;20198;-42
2022/04/05 03:27:18;;;;;;;8.93;1.55;;;;;;;2.45;93.94;99738.69;5069930;28;20233;-44
2022/04/05 03:29:43;;;;;;;14.82;2.70;;;;;;;2.49;93.65;99750.03;5071804;28;20278;-44
2022/04/05 03:32:11;;;;;;;16.02;3.15;;;;;;;2.38;93.53;99747.63;5070167;28;20209;-42
2022/04/05 03:34:38;;;;;;;8.35;2.08;;;;;;;2.52;93.36;99746.47;5070041;28;20253;-43
2022/04/05 03:37:04;;;;;;;9.82;2.00;;;;;;;2.43;93.32;99748.41;5071238;28;20264;-42
2022/04/05 03:39:29;;;;;;;10.88;1.77;;;;;;;2.39;93.33;99752.03;5053898;28;20176;-45
2022/04/05 03:41:56;;;;;;;12.32;2.38;;;;;;;2.41;93.24;99750.22;5071457;28;20189;-42
2022/04/05 03:44:22;;;;;;;14.00;2.13;;;;;;;2.47;92.67;99760.66;5075860;28;20180;-44
2022/04/05 03:46:49;;;;;;;11.55;2.03;;;;;;;2.41;92.48;99765.22;5063208;28;20202;-49
2022/04/05 03:49:15;;;;;;;6.78;1.80;;;;;;;2.36;92.85;99767.97;5036462;28;20175;-43
2022/04/05 03:51:41;;;;;;;10.70;1.88;;;;;;;2.38;92.85;99758.19;5069940;28;20163;-48
2022/04/05 03:54:07;;;;;;;11.82;2.33;;;;;;;2.40;92.49;99766.97;5070586;28;20653;-43
2022/04/05 03:56:37;;;;;;;13.98;2.13;;;;;;;2.37;93.04;99764.41;5069148;28;20288;-43
2022/04/05 03:59:05;;;;;;;13.43;2.33;;;;;;;2.29;92.87;99774.28;5086033;28;20289;-43
2022/04/05 04:01:31;;;;;;;8.65;1.85;;;;;;;2.28;92.93;99780.47;5065106;28;20191;-44
2022/04/05 04:03:57;;;;;;;14.15;1.73;;;;;;;2.35;92.34;99787.34;5068562;28;20228;-46
2022/04/05 04:06:24;;;;;;;12.43;2.05;;;;;;;2.19;92.39;99778.91;5086156;28;20223;-45
2022/04/05 04:08:50;;;;;;;10.20;2.25;;;;;;;2.26;92.49;99792.84;5085457;28;20248;-46
2022/04/05 04:11:18;;;;;;;10.05;1.90;;;;;;;2.24;92.30;99792.00;5086579;28;20190;-46
2022/04/05 04:13:45;;;;;;;13.50;1.85;;;;;;;2.26;91.96;99796.34;5086623;28;20223;-46
2022/04/05 04:16:12;;;;;;;15.02;2.50;;;;;;;2.29;91.73;99784.84;5085944;28;20275;-45
2022/04/05 04:18:41;;;;;;;15.98;2.13;;;;;;;2.33;91.48;99794.44;5085834;28;20174;-43
2022/04/05 04:21:07;;;;;;;10.88;2.55;;;;;;;2.33;91.56;99806.81;5068848;28;20688;-45
2022/04/05 04:23:33;;;;;;;12.80;2.35;;;;;;;2.20;91.58;99807.03;5085985;28;20170;-43
2022/04/05 04:25:59;;;;;;;8.48;1.90;;;;;;;2.20;91.59;99809.69;5086190;28;20236;-44
2022/04/05 04:28:25;;;;;;;13.40;2.42;;;;;;;2.08;91.64;99803.78;5085144;28;20205;-46
2022/04/05 04:30:50;;;;;;;12.93;2.28;;;;;;;2.15;91.54;99803.63;5085848;28;20163;-43
2022/04/05 04:33:15;;;;;;;11.05;1.77;;;;;;;2.18;91.65;99811.50;5068465;28;20646;-46
2022/04/05 04:35:43;;;;;;;12.18;2.00;;;;;;;2.14;91.48;99808.94;5069953;28;20257;-46
2022/04/05 04:38:08;;;;;;;8.90;2.10;;;;;;;2.09;91.20;99816.97;5069414;28;20179;-42
2022/04/05 04:40:36;;;;;;;13.07;2.45;;;;;;;2.10;91.08;99813.44;5069859;28;20225;-44
2022/04/05 04:43:01;;;;;;;7.20;1.90;;;;;;;2.06;91.32;99819.69;5070200;28;20257;-47
2022/04/05 04:45:28;;;;;;;9.38;1.70;;;;;;;2.01;91.48;99819.78;5069652;28;20782;-43
2022/04/05 04:47:54;;;;;;;12.63;1.83;;;;;;;2.03;91.53;99819.72;5069434;28;20178;-43
2022/04/05 04:50:20;;;;;;;7.22;1.55;;;;;;;2.00;91.19;99828.59;5069748;28;20182;-45
2022/04/05 04:52:45;;;;;;;9.23;1.67;;;;;;;2.01;91.42;99834.72;5069649;28;20257;-46
2022/04/05 04:55:11;;;;;;;10.18;1.70;;;;;;;1.90;91.23;99840.22;5068325;28;20259;-43
2022/04/05 04:57:36;;;;;;;15.55;2.33;;;;;;;1.97;91.38;99838.34;5069325;28;20257;-46
2022/04/05 05:00:04;;;;;;;10.73;3.17;;;;;;;2.03;91.28;99836.47;5069901;28;20174;-47
2022/04/05 05:02:30;;;;;;;8.00;1.98;;;;;;;2.04;91.01;99832.91;5070281;28;20174;-48
2022/04/05 05:04:55;;;;;;;19.35;2.22;;;;;;;1.98;91.58;99832.16;5069400;28;20187;-43
2022/04/05 05:07:21;;;;;;;15.48;2.40;;;;;;;2.01;91.54;99838.28;5069395;28;20193;-42
2022/04/05 05:09:46;;;;;;;10.65;2.33;;;;;;;1.99;91.55;99842.72;5069349;28;20169;-47
2022/04/05 05:12:12;;;;;;;8.23;2.92;;;;;;;1.99;91.43;99831.25;5070217;28;20187;-43
2022/04/05 05:14:38;;;;;;;13.40;4.28;;;;;;;2.01;90.98;99842.66;5069668;28;20168;-45
2022/04/05 05:17:04;;;;;;;15.85;4.32;;;;;;;2.03;91.58;99846.13;5069198;28;20290;-44
2022/04/05 05:19:30;;;;;;;12.45;4.15;;;;;;;2.13;90.80;99849.50;5068643;28;20171;-44
2022/04/05 05:21:56;;;;;;;11.27;2.97;;;;;;;2.12;90.80;99850.38;5084470;28;20693;-44
2022/04/05 05:24:21;;;;;;;13.50;2.20;;;;;;;2.16;90.89;99857.34;5069506;28;20254;-46
2022/04/05 05:26:47;;;;;;;15.63;2.42;;;;;;;2.21;90.63;99866.06;5069636;28;20190;-44
2022/04/05 05:29:13;;;;;;;11.10;2.28;;;;;;;2.26;90.23;99858.91;5069063;28;20173;-43
2022/04/05 05:31:39;;;;;;;16.10;2.25;;;;;;;2.22;89.92;99875.72;5069836;28;20213;-46
2022/04/05 05:34:04;;;;;;;8.40;2.00;;;;;;;2.28;90.29;99875.63;5069688;28;20202;-45
2022/04/05 05:36:30;;;;;;;11.68;1.90;;;;;;;2.25;89.79;99879.19;5068386;28;20233;-44
2022/04/05 05:38:55;;;;;;;7.78;2.45;;;;;;;2.35;89.60;99879.88;5084786;28;20282;-44
2022/04/05 05:41:21;;;;;;;12.82;2.05;;;;;;;2.43;89.12;99872.66;5069277;28;20251;-43
2022/04/05 05:43:46;;;;;;;12.43;1.77;;;;;;;2.48;89.38;99880.50;5069357;28;20179;-43
2022/04/05 05:46:13;;;;;;;9.85;1.70;;;;;;;2.71;88.74;99871.19;5068966;28;20775;-46
2022/04/05 05:48:38;;;;;;;11.65;1.98;;;;;;;2.98;87.87;99880.31;5068963;28;20165;-44
2022/04/05 05:51:05;;;;;;;13.77;2.25;;;;;;;3.26;86.93;99878.78;5069023;28;20472;-44
2022/04/05 05:53:31;;;;;;;8.23;2.80;;;;;;;3.32;86.17;99887.47;5069388;28;20173;-45
2022/04/05 05:55:57;;;;;;;10.98;1.80;;;;;;;3.56;85.32;99886.88;5069253;28;20256;-43
2022/04/05 05:58:22;;;;;;;9.13;2.00;;;;;;;3.91;84.27;99890.41;5069104;28;20166;-43
2022/04/05 06:00:48;;;;;;;9.15;1.77;;;;;;;4.19;82.82;99898.50;5069509;28;20191;-45
2022/04/05 06:03:13;;;;;;;9.77;1.73;;;;;;;3.99;82.21;99890.22;5069358;28;20171;-46
2022/04/05 06:05:39;;;;;;;10.13;1.90;;;;;;;3.97;81.42;99894.69;5068942;28;20199;-44
2022/04/05 06:08:05;;;;;;;12.23;2.13;;;;;;;4.08;82.19;99893.47;5063506;28;20272;-45
2022/04/05 06:10:30;;;;;;;9.82;2.35;;;;;;;4.44;81.12;99895.16;5069637;28;20222;-46
2022/04/05 06:12:57;;;;;;;8.43;2.00;;;;;;;4.50;80.46;99902.94;5070390;28;20589;-49
2022/04/05 06:15:25;;;;;;;9.20;2.30;;;;;;;4.94;79.86;99895.47;5068653;28;20502;-44
2022/04/05 06:17:51;;;;;;;8.85;2.42;;;;;;;5.20;78.50;99905.28;5043505;22;20160;-54
2022/04/05 06:20:19;;;;;;;8.77;2.22;;;;;;;5.37;77.96;99913.59;5044539;28;20221;-45
2022/04/05 06:23:00;;;;;;;16.10;3.42;;;;;;;4.93;77.84;99915.84;5047479;28;20170;-46
2022/04/05 06:25:31;;;;;;;8.73;2.40;;;;;;;4.54;78.63;99920.53;5048929;28;20191;-47
2022/04/05 06:28:01;;;;;;;12.02;2.03;;;;;;;4.36;80.27;99906.00;5049973;28;20175;-51
2022/04/05 06:30:27;;;;;;;11.02;2.13;;;;;;;4.22;81.30;99911.69;5052104;28;20180;-45
2022/04/05 06:33:09;;;;;;;12.00;1.83;;;;;;;4.05;81.82;99912.13;5052595;28;20676;-44
2022/04/05 06:35:39;;;;;;;12.18;2.55;;;;;;;4.46;82.44;99909.25;5052427;28;20720;-46
2022/04/05 06:38:04;;;;;;;10.52;2.10;;;;;;;4.66;81.61;99925.50;5052315;28;20630;-43
2022/04/05 06:40:30;;;;;;;9.15;1.95;;;;;;;4.39;80.82;99936.88;5052260;28;20188;-49
2022/04/05 06:42:55;;;;;;;10.02;2.20;;;;;;;4.93;80.33;99931.78;5049918;28;20295;-48
2022/04/05 06:45:22;;;;;;;10.73;1.75;;;;;;;4.97;79.66;99927.25;5051644;28;20167;-44
2022/04/05 06:47:48;;;;;;;12.18;2.40;;;;;;;5.10;78.72;99939.25;5066801;28;20171;-50
2022/04/05 06:50:14;;;;;;;7.95;1.70;;;;;;;5.38;77.33;99941.06;5060626;28;20725;-45
2022/04/05 06:52:41;;;;;;;5.75;2.00;;;;;;;5.45;77.07;99937.28;5052322;28;20283;-47
2022/04/05 06:55:08;;;;;;;5.47;1.42;;;;;;;5.75;76.21;99945.16;5051604;28;20179;-46
2022/04/05 06:57:34;;;;;;;9.35;2.33;;;;;;;6.04;75.31;99938.06;5051468;28;20194;-52
2022/04/05 07:00:00;;;;;;;6.55;1.70;;;;;;;6.11;73.41;99947.56;5050967;28;20164;-51
2022/04/05 07:02:25;;;;;;;7.20;1.73;;;;;;;6.19;74.04;99949.06;5052160;28;20512;-50
2022/04/05 07:04:50;;;;;;;7.40;1.65;;;;;;;5.92;73.77;99955.25;5052175;28;20183;-44
2022/04/05 07:07:17;;;;;;;9.75;1.70;;;;;;;6.21;74.49;99943.69;5051715;28;20206;-48
2022/04/05 07:09:43;;;;;;;6.25;1.45;;;;;;;6.44;73.06;99950.84;5051679;28;20241;-46
2022/04/05 07:12:09;;;;;;;8.57;1.30;;;;;;;6.37;72.53;99958.19;5051947;28;20168;-48
2022/04/05 07:14:34;;;;;;;13.40;1.50;;;;;;;6.45;72.51;99960.59;5050087;28;20180;-49
2022/04/05 07:17:00;;;;;;;4.63;1.13;;;;;;;6.36;73.43;99974.19;5051824;28;20245;-46
2022/04/05 07:19:25;;;;;;;9.18;1.90;;;;;;;6.26;73.27;99967.47;5051055;28;20183;-45
2022/04/05 07:21:51;;;;;;;7.97;1.58;;;;;;;6.36;73.36;99960.88;5051855;28;20249;-48
2022/04/05 07:24:17;;;;;;;8.20;1.42;;;;;;;6.24;72.88;99962.19;5051864;28;20210;-45
2022/04/05 07:26:42;;;;;;;7.68;1.55;;;;;;;6.48;72.92;99971.09;5051577;28;20266;-47
2022/04/05 07:29:08;;;;;;;7.88;1.70;;;;;;;6.57;71.63;99972.56;5051067;28;20171;-47
2022/04/05 07:31:33;;;;;;;5.13;1.40;;;;;;;6.42;72.77;99966.00;5051116;28;20246;-47
2022/04/05 07:33:58;;;;;;;5.45;1.30;;;;;;;6.74;71.21;99956.88;5052004;28;20604;-45
2022/04/05 07:36:24;;;;;;;5.20;1.48;;;;;;;6.85;70.61;99958.28;5051884;28;20709;-48
2022/04/05 07:38:49;;;;;;;9.30;1.58;;;;;;;7.41;70.03;99955.22;5051521;28;20236;-49
2022/04/05 07:41:15;;;;;;;5.93;1.30;;;;;;;7.75;68.56;99956.56;5051548;28;20224;-45
2022/04/05 07:43:40;;;;;;;8.27;1.52;;;;;;;7.87;67.13;99955.19;5051532;28;20172;-46
2022/04/05 07:46:06;;;;;;;7.55;2.03;;;;;;;7.16;67.80;99964.16;5066743;28;20308;-50
2022/04/05 07:48:31;;;;;;;11.68;1.67;;;;;;;6.98;68.75;99971.06;5051478;28;20210;-44
2022/04/05 07:50:57;;;;;;;8.68;1.60;;;;;;;6.32;71.01;99964.56;5050049;28;20160;-46
2022/04/05 07:53:23;;;;;;;6.93;1.85;;;;;;;6.13;69.42;99970.53;5051577;28;20167;-46
2022/04/05 07:55:48;;;;;;;11.30;1.60;;;;;;;5.89;71.67;99984.63;5051059;28;20202;-46
2022/04/05 07:58:14;;;;;;;8.77;1.60;;;;;;;6.05;73.93;99985.00;5051725;28;20183;-47
2022/04/05 08:00:39;;;;;;;5.40;1.10;;;;;;;5.86;75.53;99990.91;5052016;28;20206;-45
2022/04/05 08:03:05;;;;;;;8.10;1.42;;;;;;;5.78;75.62;99996.44;5050096;28;20177;-47
2022/04/05 08:05:31;;;;;;;5.28;1.63;;;;;;;5.77;76.29;100008.03;5051239;28;20624;-45
2022/04/05 08:07:56;;;;;;;7.68;1.40;;;;;;;5.57;76.81;99995.38;5051364;28;20172;-49
2022/04/05 08:10:22;;;;;;;7.60;1.10;;;;;;;5.39;76.90;99995.03;5051291;28;20182;-45
2022/04/05 08:12:50;;;;;;;7.63;1.25;;;;;;;5.42;77.34;100000.25;5051623;28;20174;-44
2022/04/05 08:15:21;;;;;;;7.53;0.90;;;;;;;5.22;77.60;99999.06;5051349;28;20167;-47
2022/04/05 08:17:48;;;;;;;5.68;1.05;;;;;;;5.30;78.09;99996.19;5051310;28;20172;-46
2022/04/05 08:20:14;;;;;;;5.40;1.10;;;;;;;5.32;77.80;100005.84;5066576;28;20198;-45
2022/04/05 08:22:41;;;;;;;4.18;1.17;;;;;;;5.06;78.58;100001.31;5051909;28;20560;-46
2022/04/05 08:25:07;;;;;;;3.88;1.10;;;;;;;5.23;79.50;99992.84;5050778;28;20217;-46
2022/04/05 08:27:33;;;;;;;4.70;1.48;;;;;;;5.44;80.28;99991.31;5050601;28;20195;-46
2022/04/05 08:29:59;;;;;;;4.88;1.67;;;;;;;5.69;81.10;100002.06;5051160;28;20175;-45
2022/04/05 08:32:25;;;;;;;5.93;1.70;;;;;;;5.75;79.98;99995.66;5050899;28;20225;-47
2022/04/05 08:34:51;;;;;;;5.00;1.33;;;;;;;5.62;79.89;100013.81;5051132;28;20703;-46
2022/04/05 08:37:16;;;;;;;5.93;1.40;;;;;;;5.78;79.76;100003.56;5050885;28;20199;-47
2022/04/05 08:39:42;;;;;;;5.65;1.13;;;;;;;5.68;79.83;100004.75;5050450;28;20299;-47
2022/04/05 08:42:08;;;;;;;7.78;1.38;;;;;;;5.48;79.45;100006.25;5049487;28;20628;-46
2022/04/05 08:44:34;;;;;;;4.90;1.30;;;;;;;5.42;80.06;100016.19;5050679;28;20262;-48
2022/04/05 08:47:01;;;;;;;7.05;1.25;;;;;;;5.33;80.92;100014.69;5050863;28;20195;-46
2022/04/05 08:49:31;;;;;;;9.90;1.45;;;;;;;5.28;81.66;100017.47;5050121;28;20182;-48
2022/04/05 08:51:57;;;;;;;9.30;1.40;;;;;;;4.89;81.59;100016.84;5050147;28;20170;-47
2022/04/05 08:54:23;;;;;;;6.90;1.13;;;;;;;4.61;82.48;100014.94;5050302;28;20270;-46
2022/04/05 08:56:50;;;;;;;6.40;1.73;;;;;;;4.37;81.06;100013.81;5050215;28;20194;-47
2022/04/05 08:59:16;;;;;;;2.95;1.00;;;;;;;4.12;78.62;100016.22;5049980;28;20166;-46
2022/04/05 09:01:41;;;;;;;2.72;0.90;;;;;;;4.30;77.50;100012.22;5050232;28;20195;-47
2022/04/05 09:04:07;;;;;;;3.90;0.90;;;;;;;4.33;76.69;100002.41;5048863;28;20175;-47
2022/04/05 09:06:34;;;;;;;5.90;0.80;;;;;;;4.64;76.48;100000.75;5049983;28;20241;-45
2022/04/05 09:09:07;;;;;;;3.80;0.90;;;;;;;4.86;78.48;100004.53;5049725;28;20214;-48
2022/04/05 09:11:33;;;;;;;5.55;0.88;;;;;;;4.86;80.36;100017.81;5050264;28;20513;-45
2022/04/05 09:14:00;;;;;;;4.97;1.30;;;;;;;4.96;80.44;100013.09;5049988;28;20239;-47
2022/04/05 09:16:33;;;;;;;4.95;1.27;;;;;;;4.87;80.77;100019.53;5050375;28;20214;-45
2022/04/05 09:19:00;;;;;;;3.83;1.63;;;;;;;4.73;83.70;100032.31;5049706;28;20171;-46
2022/04/05 09:21:26;;;;;;;5.00;1.80;;;;;;;4.54;84.18;100029.28;5048516;28;20210;-45
2022/04/05 09:23:52;;;;;;;5.78;1.83;;;;;;;4.41;84.63;100026.06;5050424;28;20175;-45
2022/04/05 09:26:19;;;;;;;4.18;1.00;;;;;;;4.32;84.67;100034.28;5049888;28;20191;-46
2022/04/05 09:28:50;;;;;;;5.22;1.20;;;;;;;4.36;84.68;100037.72;5049745;28;20179;-46
2022/04/05 09:31:18;;;;;;;3.00;0.90;;;;;;;4.59;85.58;100035.34;5048996;28;20172;-47
2022/04/05 09:34:03;;;;;;;1.65;0.82;;;;;;;4.77;86.45;100025.13;5049745;28;20247;-46
2022/04/05 09:36:36;;;;;;;4.45;1.20;;;;;;;4.81;87.29;100030.34;5048835;28;20494;-45
2022/04/05 09:39:17;;;;;;;3.28;0.80;;;;;;;5.02;86.24;100033.31;5049832;28;20220;-46
2022/04/05 09:42:05;;;;;;;3.55;0.70;;;;;;;4.92;83.08;100022.94;5048262;28;20557;-47
2022/04/05 09:44:42;;;;;;;3.05;1.02;;;;;;;5.29;80.82;100013.03;5048806;28;20196;-48
2022/04/05 09:47:19;;;;;;;2.95;0.75;;;;;;;5.50;79.83;100015.03;5048315;28;20244;-47
2022/04/05 09:49:47;;;;;;;2.75;0.70;;;;;;;5.36;79.62;100012.81;5049481;28;20186;-45
2022/04/05 09:52:30;;;;;;;1.95;0.70;;;;;;;5.64;79.20;100009.31;5048049;28;20629;-46
2022/04/05 09:55:09;;;;;;;3.60;0.77;;;;;;;5.65;79.00;100007.53;5049236;28;20222;-45
2022/04/05 09:57:35;;;;;;;3.83;0.82;;;;;;;6.31;78.90;100003.63;5049173;28;20191;-46
2022/04/05 10:00:13;;;;;;;5.47;1.10;;;;;;;6.46;77.44;100001.34;5050079;28;20584;-46
2022/04/05 10:03:02;;;;;;;3.38;1.08;;;;;;;6.38;76.34;99990.97;5050636;28;20167;-46
2022/04/05 10:05:31;;;;;;;2.80;0.77;;;;;;;6.39;74.39;99995.38;5053787;28;20164;-47
2022/04/05 10:07:57;;;;;;;6.80;1.15;;;;;;;6.50;74.05;99995.88;5053223;28;20167;-46
2022/04/05 10:10:23;;;;;;;3.08;1.40;;;;;;;6.51;74.62;99994.94;5053207;28;20225;-47
2022/04/05 10:12:49;;;;;;;7.43;1.33;;;;;;;6.51;73.70;99989.63;5053572;28;20180;-48
2022/04/05 10:15:15;;;;;;;5.28;1.63;;;;;;;6.41;73.06;99993.53;5053335;28;20698;-50
2022/04/05 10:17:45;;;;;;;4.45;1.45;;;;;;;6.10;74.14;99999.00;5053155;28;20171;-49
2022/04/05 10:20:12;;;;;;;2.22;1.13;;;;;;;6.44;73.84;99993.41;5053286;28;20193;-45
2022/04/05 10:22:39;;;;;;;6.00;1.02;;;;;;;6.58;73.21;99996.47;5051818;28;20187;-46
2022/04/05 10:25:06;;;;;;;10.25;1.15;;;;;;;6.72;72.16;99995.97;5053231;28;20587;-46
2022/04/05 10:27:32;;;;;;;5.30;1.00;;;;;;;7.10;72.68;99991.03;5052946;28;20191;-46
2022/04/05 10:30:46;;;;;;;5.07;1.05;;;;;;;7.07;71.14;100004.47;5053257;28;20194;-45
2022/04/05 10:33:24;;;;;;;6.60;1.20;;;;;;;7.28;72.93;99991.25;5047337;28;20191;-48
2022/04/05 10:35:55;;;;;;;7.88;1.30;;;;;;;7.23;72.35;100005.63;5053552;28;20205;-46
2022/04/05 10:38:21;;;;;;;3.25;0.77;;;;;;;7.32;71.65;99996.41;5053094;28;20251;-46
2022/04/05 10:41:23;;;;;;;2.78;0.80;;;;;;;7.34;69.97;99991.03;5051599;28;20685;-44
2022/04/05 10:44:16;;;;;;;4.03;1.00;;;;;;;7.26;71.40;99988.69;5052814;28;20285;-47
2022/04/05 10:46:50;;;;;;;2.28;1.02;;;;;;;7.40;72.20;99996.13;5052784;28;20179;-46
2022/04/05 10:49:32;;;;;;;5.90;1.08;;;;;;;7.45;69.97;99991.50;5052777;28;20646;-45
2022/04/05 10:52:23;;;;;;;4.05;1.13;;;;;;;7.28;69.10;99985.94;5051503;28;20147;-43
2022/04/05 10:54:51;;;;;;;6.07;1.00;;;;;;;7.59;69.08;99980.31;5052848;28;20193;-45
2022/04/05 10:57:32;;;;;;;2.85;0.85;;;;;;;7.73;69.68;99991.28;5052826;28;20191;-46
2022/04/05 11:00:04;;;;;;;4.90;0.70;;;;;;;7.49;68.12;99986.91;5052036;28;20660;-47
2022/04/05 11:02:37;;;;;;;2.60;0.73;;;;;;;7.24;66.61;99979.88;5051227;28;20245;-47
2022/04/05 11:05:14;;;;;;;3.95;0.95;;;;;;;7.45;66.91;99983.50;5052415;28;20204;-48
2022/04/05 11:07:51;;;;;;;6.60;1.42;;;;;;;7.29;68.20;99988.56;5052243;28;20198;-45
2022/04/05 11:10:18;;;;;;;4.20;1.08;;;;;;;7.42;67.77;99978.28;5052309;28;20199;-46
2022/04/05 11:12:44;;;;;;;7.15;1.40;;;;;;;7.76;67.17;99977.84;5052578;28;20183;-46
2022/04/05 11:15:13;;;;;;;5.18;0.80;;;;;;;7.31;67.31;99975.19;5052230;28;20657;-45
2022/04/05 11:17:41;;;;;;;5.70;1.23;;;;;;;7.03;67.77;99972.69;5052027;28;20234;-47
2022/04/05 11:20:08;;;;;;;8.70;1.30;;;;;;;7.12;68.32;99981.19;5051797;28;20168;-48
2022/04/05 11:22:38;;;;;;;3.58;1.10;;;;;;;7.32;69.37;99967.09;5052039;28;20201;-46
2022/04/05 11:25:05;;;;;;;3.95;1.10;;;;;;;7.45;68.83;99962.16;5051423;28;20203;-47
2022/04/05 11:27:48;;;;;;;2.83;1.02;;;;;;;7.45;67.35;99963.97;5052255;28;20249;-47
2022/04/05 11:30:22;;;;;;;3.58;1.10;;;;;;;7.38;67.69;99964.22;5050849;28;20222;-47
2022/04/05 11:33:09;;;;;;;3.78;1.52;;;;;;;7.65;66.50;99974.72;5052098;28;20207;-46
2022/04/05 11:35:35;;;;;;;5.13;1.05;;;;;;;7.51;64.72;99977.06;5051543;28;20180;-45
2022/04/05 11:38:01;;;;;;;3.58;0.95;;;;;;;7.31;64.68;99980.50;5051878;28;20251;-48
2022/04/05 11:40:26;;;;;;;2.10;0.75;;;;;;;7.44;62.90;99979.09;5051678;28;20239;-47